»·PEaware :: N333ZS KSAC-KMRY

N333ZS :: KSAC-KMRY

FLIGHT INFORMATION

Flight Status: Arrived
Operator: Privately registered:
United States
More flights under this callsign
Pilot: Judd H. (29974)
Aircraft: CESSNA 182 SKYLANE
(C182)
More flights by this aircraft type
Origin: KSAC Sacramento Executive
United States
Destination: KMRY Monterey Peninsula
United States
More flights between these airports :: More routes between these airports
Route: SOC SJC SNS
File this flight plan on PilotEdge
Remarks:
Altitude:
(Current/Filed)
5,500ft
Speed:
(Current/Filed)
120kts
Departed: 04-Sep-20 01:38 PM
Arrived: 04-Sep-20 02:36 PM
Distance/Time
Traveled:
258nm/0:57
Distance/Time
To Go:
Arrived

Flight Plot

Page will automatically refresh every two minutes.

Flight plan parsing failed; only flown route is shown


Map Options




Map Legend


Flown Route
Filed Route
Departure Airport
Arrival Airport
Navaid (VOR, NDB)
Fix

Horizontal Profiles

Position Reports

Time Latitude Longitude Heading Altitude Ground
Speed
04-Sep-20 13:19 38.512100 -121.497894 213 27ft 0kts
04-Sep-20 13:20 38.512094 -121.497900 213 27ft 0kts
04-Sep-20 13:21 38.512087 -121.497906 213 27ft 0kts
04-Sep-20 13:22 38.512080 -121.497911 213 27ft 0kts
04-Sep-20 13:22 38.512074 -121.497916 213 27ft 0kts
04-Sep-20 13:24 38.512066 -121.497923 213 27ft 0kts
04-Sep-20 13:25 38.512059 -121.497929 212 27ft 0kts
04-Sep-20 13:25 38.512053 -121.497934 212 27ft 0kts
04-Sep-20 13:27 38.512045 -121.497941 212 27ft 0kts
04-Sep-20 13:27 38.512039 -121.497946 212 27ft 0kts
04-Sep-20 13:28 38.512032 -121.497951 212 27ft 0kts
04-Sep-20 13:30 38.512024 -121.497958 212 27ft 0kts
04-Sep-20 13:30 38.512018 -121.497962 212 27ft 0kts
04-Sep-20 13:31 38.512011 -121.497968 212 27ft 0kts
04-Sep-20 13:32 38.511977 -121.497995 211 27ft 4kts
04-Sep-20 13:33 38.513346 -121.495664 33 27ft 22kts
04-Sep-20 13:34 38.517703 -121.492035 32 27ft 27kts
04-Sep-20 13:35 38.519158 -121.490117 104 27ft 0kts
04-Sep-20 13:36 38.518994 -121.489568 139 27ft 9kts
04-Sep-20 13:37 38.503104 -121.502319 216 352ft 112kts
04-Sep-20 13:38 38.477279 -121.528478 221 1231ft 122kts
04-Sep-20 13:39 38.443182 -121.547247 201 1695ft 136kts
04-Sep-20 13:40 38.407515 -121.561748 199 2301ft 134kts
04-Sep-20 13:41 38.372484 -121.578751 201 2790ft 133kts
04-Sep-20 13:42 38.336659 -121.593468 198 3259ft 134kts
04-Sep-20 13:43 38.300707 -121.605330 198 3760ft 134kts
04-Sep-20 13:44 38.264492 -121.618180 198 4229ft 135kts
04-Sep-20 13:45 38.228210 -121.631482 196 4642ft 135kts
04-Sep-20 13:46 38.191983 -121.644177 199 5004ft 135kts
04-Sep-20 13:47 38.157441 -121.659560 205 5409ft 131kts
04-Sep-20 13:48 38.121676 -121.676782 200 5492ft 142kts
04-Sep-20 13:49 38.083685 -121.692414 200 5497ft 143kts
04-Sep-20 13:50 38.045775 -121.708099 200 5496ft 143kts
04-Sep-20 13:51 38.007841 -121.723865 200 5493ft 142kts
04-Sep-20 13:52 37.969900 -121.738626 194 5491ft 142kts
04-Sep-20 13:53 37.931250 -121.749835 195 5489ft 142kts
04-Sep-20 13:54 37.892494 -121.761229 195 5489ft 143kts
04-Sep-20 13:55 37.853633 -121.772870 195 5484ft 143kts
04-Sep-20 13:56 37.814785 -121.784579 195 5481ft 143kts
04-Sep-20 13:57 37.775737 -121.796412 195 5481ft 145kts
04-Sep-20 13:58 37.736498 -121.808316 195 5481ft 145kts
04-Sep-20 13:59 37.696964 -121.820261 195 5482ft 146kts
04-Sep-20 14:00 37.657214 -121.832263 195 5481ft 146kts
04-Sep-20 14:01 37.618384 -121.847097 199 5481ft 146kts
04-Sep-20 14:02 37.579244 -121.862562 199 5483ft 147kts
04-Sep-20 14:03 37.539860 -121.877972 199 5482ft 149kts
04-Sep-20 14:04 37.500059 -121.893612 199 5480ft 150kts
04-Sep-20 14:05 37.460212 -121.909542 199 5483ft 151kts
04-Sep-20 14:06 37.420087 -121.925593 199 5484ft 151kts
04-Sep-20 14:07 37.379983 -121.940822 186 5479ft 152kts
04-Sep-20 14:08 37.340713 -121.921425 163 5484ft 152kts
04-Sep-20 14:09 37.300042 -121.905577 163 5489ft 152kts
04-Sep-20 14:10 37.259757 -121.889579 163 5492ft 151kts
04-Sep-20 14:11 37.220025 -121.872781 161 5501ft 150kts
04-Sep-20 14:12 37.180866 -121.854576 161 5507ft 149kts
04-Sep-20 14:13 37.142477 -121.834240 158 5482ft 150kts
04-Sep-20 14:14 37.102730 -121.812905 158 5080ft 160kts
04-Sep-20 14:15 37.061193 -121.791089 158 4638ft 163kts
04-Sep-20 14:16 37.020299 -121.770530 158 4244ft 150kts
04-Sep-20 14:17 36.981996 -121.751768 158 3943ft 146kts
04-Sep-20 14:18 36.943896 -121.733676 158 3645ft 146kts
04-Sep-20 14:19 36.905750 -121.715214 154 3362ft 153kts
04-Sep-20 14:20 36.868927 -121.701375 162 3118ft 132kts
04-Sep-20 14:21 36.833455 -121.687421 159 2739ft 135kts
04-Sep-20 14:22 36.798186 -121.672111 159 2338ft 134kts
04-Sep-20 14:23 36.764200 -121.657006 159 2168ft 122kts
04-Sep-20 14:24 36.732803 -121.643307 159 2181ft 117kts
04-Sep-20 14:25 36.703561 -121.624163 154 2084ft 120kts
04-Sep-20 14:26 36.671246 -121.620327 181 2083ft 117kts
04-Sep-20 14:27 36.644204 -121.639585 223 2088ft 114kts
04-Sep-20 14:28 36.619674 -121.665162 222 2085ft 115kts
04-Sep-20 14:29 36.595214 -121.690613 223 2090ft 114kts
04-Sep-20 14:30 36.570844 -121.715880 223 2093ft 113kts
04-Sep-20 14:31 36.554855 -121.745930 284 2096ft 104kts
04-Sep-20 14:32 36.564687 -121.778382 295 1563ft 100kts
04-Sep-20 14:33 36.574431 -121.807819 299 838ft 84kts
04-Sep-20 14:34 36.583073 -121.832846 298 286ft 69kts
04-Sep-20 14:35 36.586939 -121.841654 295 208ft 3kts
04-Sep-20 14:36 36.588384 -121.845789 293 208ft 15kts
04-Sep-20 14:37 36.590388 -121.850960 357 208ft 14kts
04-Sep-20 14:38 36.591722 -121.850093 69 208ft 0kts
04-Sep-20 14:39 36.591723 -121.850091 69 208ft 0kts
04-Sep-20 14:40 36.591723 -121.850090 69 208ft 0kts
04-Sep-20 14:41 36.591723 -121.850090 69 208ft 0kts
04-Sep-20 14:42 36.591723 -121.850090 69 208ft 0kts
04-Sep-20 14:43 34.423507 -119.835828 164 15ft 0kts
04-Sep-20 14:44 34.423507 -119.835828 164 13ft 0kts
04-Sep-20 14:45 34.423507 -119.835828 164 13ft 0kts
04-Sep-20 14:46 34.423507 -119.835828 164 13ft 0kts

Navigation Log

Ident Type
Flight plan parsing failed, navigation log unavailable